createdAt,value
2018-02-21T00:00:18.719Z,0.00
2018-02-21T00:01:18.750Z,0.00
2018-02-21T00:02:18.768Z,0.00
2018-02-21T00:03:18.793Z,0.00
2018-02-21T00:04:18.817Z,0.00
2018-02-21T00:05:18.841Z,0.00
2018-02-21T00:06:18.866Z,0.00
2018-02-21T00:07:18.890Z,0.00
2018-02-21T00:08:18.915Z,0.00
2018-02-21T00:09:18.937Z,0.00
2018-02-21T00:10:18.961Z,0.00
2018-02-21T00:11:18.985Z,0.00
2018-02-21T00:12:19.013Z,0.00
2018-02-21T00:13:19.035Z,0.00
2018-02-21T00:14:19.061Z,0.00
2018-02-21T00:15:19.087Z,0.00
2018-02-21T00:16:19.108Z,0.00
2018-02-21T00:17:19.133Z,0.00
2018-02-21T00:18:19.155Z,0.00
2018-02-21T00:19:19.179Z,0.00
2018-02-21T00:20:19.204Z,0.00
2018-02-21T00:21:19.227Z,0.00
2018-02-21T00:22:19.251Z,0.00
2018-02-21T00:23:19.276Z,0.00
2018-02-21T00:24:19.302Z,0.00
2018-02-21T00:25:19.321Z,0.00
2018-02-21T00:26:19.346Z,0.00
2018-02-21T00:27:19.370Z,0.00
2018-02-21T00:28:19.395Z,0.00
2018-02-21T00:29:19.417Z,0.00
2018-02-21T00:30:19.442Z,0.00
2018-02-21T00:31:19.465Z,0.00
2018-02-21T00:32:19.492Z,0.00
2018-02-21T00:33:19.512Z,0.00
2018-02-21T00:34:19.534Z,0.00
2018-02-21T00:35:19.560Z,0.00
2018-02-21T00:36:19.584Z,0.00
2018-02-21T00:37:19.611Z,0.00
2018-02-21T00:38:19.630Z,0.00
2018-02-21T00:39:19.653Z,0.00
2018-02-21T00:40:19.679Z,0.00
2018-02-21T00:41:19.705Z,0.00
2018-02-21T00:42:19.726Z,0.00
2018-02-21T00:43:19.749Z,0.00
2018-02-21T00:44:19.773Z,0.00
2018-02-21T00:45:19.795Z,0.00
2018-02-21T00:46:19.819Z,0.00
2018-02-21T00:47:19.843Z,0.00
2018-02-21T00:48:19.867Z,0.00
2018-02-21T00:49:19.890Z,0.00
2018-02-21T00:50:19.913Z,0.00
2018-02-21T00:51:19.938Z,0.00
2018-02-21T00:52:19.962Z,0.00
2018-02-21T00:53:19.985Z,0.00
2018-02-21T00:54:20.009Z,0.00
2018-02-21T00:55:20.033Z,0.00
2018-02-21T00:56:20.060Z,0.00
2018-02-21T00:57:20.079Z,0.00
2018-02-21T00:58:20.103Z,0.00
2018-02-21T00:59:20.127Z,0.00
2018-02-21T01:00:20.151Z,0.00
2018-02-21T01:01:20.174Z,0.00
2018-02-21T01:02:20.197Z,0.00
2018-02-21T01:03:20.222Z,0.00
2018-02-21T01:04:20.246Z,0.00
2018-02-21T01:05:20.268Z,0.00
2018-02-21T01:06:20.293Z,0.00
2018-02-21T01:07:20.316Z,0.00
2018-02-21T01:08:20.341Z,0.00
2018-02-21T01:09:20.363Z,0.00
2018-02-21T01:10:20.388Z,0.00
2018-02-21T01:11:20.412Z,0.00
2018-02-21T01:12:20.435Z,0.00
2018-02-21T01:13:20.459Z,0.00
2018-02-21T01:14:20.482Z,0.00
2018-02-21T01:15:20.506Z,0.00
2018-02-21T01:16:20.529Z,0.00
2018-02-21T01:17:20.553Z,0.00
2018-02-21T01:18:20.578Z,0.00
2018-02-21T01:19:20.602Z,0.00
2018-02-21T01:20:20.626Z,0.00
2018-02-21T01:21:20.648Z,0.00
2018-02-21T01:22:20.673Z,0.00
2018-02-21T01:23:20.697Z,0.00
2018-02-21T01:24:20.721Z,0.00
2018-02-21T01:25:20.743Z,0.00
2018-02-21T01:26:20.768Z,0.00
2018-02-21T01:27:20.792Z,0.00
2018-02-21T01:28:20.819Z,0.00
2018-02-21T01:29:20.841Z,0.00
2018-02-21T01:30:20.864Z,0.00
2018-02-21T01:31:20.889Z,0.00
2018-02-21T01:32:20.913Z,0.00
2018-02-21T01:33:20.937Z,0.00
2018-02-21T01:34:20.961Z,0.00
2018-02-21T01:35:20.985Z,0.00
2018-02-21T01:36:21.011Z,0.00
2018-02-21T01:37:21.033Z,0.00
2018-02-21T01:38:21.061Z,0.00
2018-02-21T01:39:21.082Z,0.00
2018-02-21T01:40:21.107Z,0.00
2018-02-21T01:41:21.130Z,0.00
2018-02-21T01:42:21.155Z,0.00
2018-02-21T01:43:21.184Z,0.00
2018-02-21T01:44:21.209Z,0.00
2018-02-21T01:45:21.227Z,0.00
2018-02-21T01:46:21.252Z,0.00
2018-02-21T01:47:21.277Z,0.00
2018-02-21T01:48:21.302Z,0.00
2018-02-21T01:49:21.329Z,0.00
2018-02-21T01:50:21.349Z,0.00
2018-02-21T01:51:21.375Z,0.00
2018-02-21T01:52:21.400Z,0.00
2018-02-21T01:53:21.422Z,0.00
2018-02-21T01:54:21.448Z,0.00
2018-02-21T01:55:21.472Z,0.00
2018-02-21T01:56:21.497Z,0.00
2018-02-21T01:57:21.519Z,0.00
2018-02-21T01:58:21.544Z,0.00
2018-02-21T01:59:21.570Z,0.00
2018-02-21T02:00:21.595Z,0.00
2018-02-21T02:01:21.625Z,0.00
2018-02-21T02:02:21.644Z,0.00
2018-02-21T02:03:21.667Z,0.00
2018-02-21T02:04:21.693Z,0.00
2018-02-21T02:05:21.716Z,0.00
2018-02-21T02:06:21.741Z,0.00
2018-02-21T02:07:21.766Z,0.00
2018-02-21T02:08:21.792Z,0.00
2018-02-21T02:09:21.816Z,0.00
2018-02-21T02:10:21.839Z,0.00
2018-02-21T02:11:21.864Z,0.00
2018-02-21T02:12:21.889Z,0.00
2018-02-21T02:13:21.913Z,0.00
2018-02-21T02:14:21.938Z,0.00
2018-02-21T02:15:21.963Z,0.00
2018-02-21T02:16:21.988Z,0.00
2018-02-21T02:17:22.011Z,0.00
2018-02-21T02:18:22.036Z,0.00
2018-02-21T02:19:22.062Z,0.00
2018-02-21T02:20:22.087Z,0.00
2018-02-21T02:21:22.111Z,0.00
2018-02-21T02:22:22.135Z,0.00
2018-02-21T02:23:22.161Z,0.00
2018-02-21T02:24:22.185Z,0.00
2018-02-21T02:25:22.209Z,0.00
2018-02-21T02:26:22.234Z,0.00
2018-02-21T02:27:22.258Z,0.00
2018-02-21T02:28:22.284Z,0.00
2018-02-21T02:29:22.307Z,0.00
2018-02-21T02:30:22.333Z,0.00
2018-02-21T02:31:22.357Z,0.00
2018-02-21T02:32:22.381Z,0.00
2018-02-21T02:33:22.406Z,0.00
2018-02-21T02:34:22.431Z,0.00
2018-02-21T02:35:22.457Z,0.00
2018-02-21T02:36:22.480Z,0.00
2018-02-21T02:37:22.505Z,0.00
2018-02-21T02:38:22.531Z,0.00
2018-02-21T02:39:22.554Z,0.00
2018-02-21T02:40:22.579Z,0.00
2018-02-21T02:41:22.605Z,0.00
2018-02-21T02:42:22.630Z,0.00
2018-02-21T02:43:22.654Z,0.00
2018-02-21T02:44:22.679Z,0.00
2018-02-21T02:45:22.703Z,0.00
2018-02-21T02:46:22.728Z,0.00
2018-02-21T02:47:22.752Z,0.00
2018-02-21T02:48:22.780Z,0.00
2018-02-21T02:49:22.808Z,0.00
2018-02-21T02:50:22.827Z,0.00
2018-02-21T02:51:22.852Z,0.00
2018-02-21T02:52:22.880Z,0.00
2018-02-21T02:53:22.902Z,0.00
2018-02-21T02:54:22.927Z,0.00
2018-02-21T02:55:22.952Z,0.00
2018-02-21T02:56:22.977Z,0.00
2018-02-21T02:57:23.001Z,0.00
2018-02-21T02:58:23.026Z,0.00
2018-02-21T02:59:23.052Z,0.00
2018-02-21T03:00:23.077Z,0.00
2018-02-21T03:01:23.104Z,0.00
2018-02-21T03:02:23.125Z,0.00
2018-02-21T03:03:23.149Z,0.00
2018-02-21T03:04:23.180Z,0.00
2018-02-21T03:05:23.200Z,0.00
2018-02-21T03:06:23.245Z,0.00
2018-02-21T03:07:23.249Z,0.00
2018-02-21T03:08:23.273Z,0.00
2018-02-21T03:09:23.297Z,0.00
2018-02-21T03:10:23.323Z,0.00
2018-02-21T03:11:23.348Z,0.00
2018-02-21T03:12:23.373Z,0.00
2018-02-21T03:13:23.397Z,0.00
2018-02-21T03:14:23.423Z,0.00
2018-02-21T03:15:23.449Z,0.00
2018-02-21T03:16:23.473Z,0.00
2018-02-21T03:17:23.495Z,0.00
2018-02-21T03:18:23.521Z,0.00
2018-02-21T03:19:23.546Z,0.00
2018-02-21T03:20:23.571Z,0.00
2018-02-21T03:21:23.595Z,0.00
2018-02-21T03:22:23.619Z,0.00
2018-02-21T03:23:23.645Z,0.00
2018-02-21T03:24:23.669Z,0.00
2018-02-21T03:25:23.695Z,0.00
2018-02-21T03:26:23.718Z,0.00
2018-02-21T03:27:23.742Z,0.00
2018-02-21T03:28:23.767Z,0.00
2018-02-21T03:29:23.791Z,0.00
2018-02-21T03:30:23.818Z,0.00
2018-02-21T03:31:23.841Z,0.00
2018-02-21T03:32:23.864Z,0.00
2018-02-21T03:33:23.889Z,0.00
2018-02-21T03:34:23.913Z,0.00
2018-02-21T03:35:23.938Z,0.00
2018-02-21T03:36:23.963Z,0.00
2018-02-21T03:37:23.985Z,0.00
2018-02-21T03:38:24.011Z,0.00
2018-02-21T03:39:24.035Z,0.00
2018-02-21T03:40:24.059Z,0.00
2018-02-21T03:41:24.086Z,0.00
2018-02-21T03:42:24.108Z,0.00
2018-02-21T03:43:24.133Z,0.00
2018-02-21T03:44:24.156Z,0.00
2018-02-21T03:45:24.180Z,0.00
2018-02-21T03:46:24.205Z,0.00
2018-02-21T03:47:24.233Z,0.00
2018-02-21T03:48:24.254Z,0.00
2018-02-21T03:49:24.275Z,0.00
2018-02-21T03:50:24.302Z,0.00
2018-02-21T03:51:24.325Z,0.00
2018-02-21T03:52:24.350Z,0.00
2018-02-21T03:53:24.374Z,0.00
2018-02-21T03:54:24.400Z,0.00
2018-02-21T03:55:24.422Z,0.00
2018-02-21T03:56:24.446Z,0.00
2018-02-21T03:57:24.471Z,0.00
2018-02-21T03:58:24.495Z,0.00
2018-02-21T03:59:24.520Z,0.00
2018-02-21T04:00:24.544Z,0.00
2018-02-21T04:01:24.566Z,0.00
2018-02-21T04:02:24.590Z,0.00
2018-02-21T04:03:24.616Z,0.00
2018-02-21T04:04:24.641Z,0.00
2018-02-21T04:05:24.664Z,0.00
2018-02-21T04:06:24.688Z,0.00
2018-02-21T04:07:24.713Z,0.00
2018-02-21T04:08:24.737Z,0.00
2018-02-21T04:09:24.764Z,0.00
2018-02-21T04:10:24.787Z,0.00
2018-02-21T04:11:24.810Z,0.00
2018-02-21T04:12:24.835Z,0.00
2018-02-21T04:13:24.857Z,0.00
2018-02-21T04:14:24.882Z,0.00
2018-02-21T04:15:24.906Z,0.00
2018-02-21T04:16:24.929Z,0.00
2018-02-21T04:17:24.953Z,0.00
2018-02-21T04:18:24.978Z,0.00
2018-02-21T04:19:25.002Z,0.00
2018-02-21T04:20:25.026Z,0.00
2018-02-21T04:21:25.050Z,0.00
2018-02-21T04:22:25.074Z,0.00
2018-02-21T04:23:25.098Z,0.00
2018-02-21T04:24:25.122Z,0.00
2018-02-21T04:25:25.146Z,0.00
2018-02-21T04:26:25.170Z,0.00
2018-02-21T04:27:25.194Z,0.00
2018-02-21T04:28:25.218Z,0.00
2018-02-21T04:29:25.242Z,0.00
2018-02-21T04:30:25.266Z,0.00
2018-02-21T04:31:25.289Z,0.00
2018-02-21T04:32:25.314Z,0.00
2018-02-21T04:33:25.339Z,0.00
2018-02-21T04:34:25.362Z,0.00
2018-02-21T04:35:25.389Z,0.00
2018-02-21T04:36:25.411Z,0.00
2018-02-21T04:37:25.432Z,0.00
2018-02-21T04:38:25.456Z,0.00
2018-02-21T04:39:25.481Z,0.00
2018-02-21T04:40:25.504Z,0.00
2018-02-21T04:41:25.526Z,0.00
2018-02-21T04:42:25.551Z,0.00
2018-02-21T04:43:25.576Z,0.00
2018-02-21T04:44:25.600Z,0.00
2018-02-21T04:45:25.623Z,0.00
2018-02-21T04:46:25.645Z,0.00
2018-02-21T04:47:25.671Z,0.00
2018-02-21T04:48:25.695Z,0.00
2018-02-21T04:49:25.719Z,0.00
2018-02-21T04:50:25.740Z,0.00
2018-02-21T04:51:25.765Z,0.00
2018-02-21T04:52:25.787Z,0.00
2018-02-21T04:53:25.811Z,0.00
2018-02-21T04:54:25.835Z,0.00
2018-02-21T04:55:25.862Z,0.00
2018-02-21T04:56:25.882Z,0.00
2018-02-21T04:57:25.905Z,0.00
2018-02-21T04:58:25.931Z,0.00
2018-02-21T04:59:25.952Z,0.00
2018-02-21T05:00:25.976Z,0.00
2018-02-21T05:01:25.999Z,0.00
2018-02-21T05:02:26.023Z,0.00
2018-02-21T05:03:26.048Z,0.00
2018-02-21T05:04:26.071Z,0.00
2018-02-21T05:05:26.094Z,0.00
2018-02-21T05:06:26.122Z,0.00
2018-02-21T05:07:26.141Z,0.00
2018-02-21T05:08:26.168Z,0.00
2018-02-21T05:09:26.189Z,0.00
2018-02-21T05:10:26.213Z,0.00
2018-02-21T05:11:26.236Z,0.00
2018-02-21T05:12:26.260Z,0.00
2018-02-21T05:13:26.283Z,0.00
2018-02-21T05:14:26.307Z,0.00
2018-02-21T05:15:26.331Z,0.00
2018-02-21T05:16:26.354Z,0.00
2018-02-21T05:17:26.377Z,0.00
2018-02-21T05:18:26.402Z,0.00
2018-02-21T05:19:26.425Z,0.00
2018-02-21T05:20:26.448Z,0.00
2018-02-21T05:21:26.471Z,0.00
2018-02-21T05:22:26.494Z,0.00
2018-02-21T05:23:26.519Z,0.00
2018-02-21T05:24:26.543Z,0.00
2018-02-21T05:25:26.568Z,0.00
2018-02-21T05:26:26.589Z,0.00
2018-02-21T05:27:26.613Z,0.00
2018-02-21T05:28:26.637Z,0.00
2018-02-21T05:29:26.662Z,0.00
2018-02-21T05:30:26.685Z,0.00
2018-02-21T05:31:26.709Z,0.00
2018-02-21T05:32:26.733Z,0.00
2018-02-21T05:33:26.755Z,0.00
2018-02-21T05:34:26.782Z,0.00
2018-02-21T05:35:26.803Z,0.00
2018-02-21T05:36:26.827Z,0.00
2018-02-21T05:37:26.851Z,0.00
2018-02-21T05:38:26.875Z,0.00
2018-02-21T05:39:26.903Z,0.00
2018-02-21T05:40:26.924Z,0.00
2018-02-21T05:41:26.945Z,0.00
2018-02-21T05:42:26.973Z,0.00
2018-02-21T05:43:26.994Z,0.00
2018-02-21T05:44:27.021Z,0.00
2018-02-21T05:45:27.042Z,0.00
2018-02-21T05:46:27.067Z,0.00
2018-02-21T05:47:27.089Z,0.00
2018-02-21T05:48:27.113Z,0.00
2018-02-21T05:49:27.137Z,0.00
2018-02-21T05:50:27.161Z,0.00
2018-02-21T05:51:27.191Z,0.00
2018-02-21T05:52:27.208Z,0.00
2018-02-21T05:53:27.232Z,0.00
2018-02-21T05:54:27.257Z,0.00
2018-02-21T05:55:27.281Z,0.00
2018-02-21T05:56:27.306Z,0.00
2018-02-21T05:57:27.329Z,4.00
2018-02-21T05:58:27.351Z,4.00
2018-02-21T05:59:27.376Z,0.00
2018-02-21T06:00:27.400Z,4.00
2018-02-21T06:01:27.424Z,4.00
2018-02-21T06:02:27.448Z,4.00
2018-02-21T06:03:27.473Z,4.00
2018-02-21T06:04:27.498Z,8.00
2018-02-21T06:05:27.521Z,8.00
2018-02-21T06:06:27.544Z,8.00
2018-02-21T06:07:27.570Z,12.00
2018-02-21T06:08:27.593Z,16.00
2018-02-21T06:09:27.617Z,16.00
2018-02-21T06:10:27.643Z,20.00
2018-02-21T06:11:27.665Z,28.00
2018-02-21T06:12:27.690Z,32.00
2018-02-21T06:13:27.714Z,44.00
2018-02-21T06:14:27.738Z,52.00
2018-02-21T06:15:27.762Z,60.00
2018-02-21T06:16:27.786Z,72.00
2018-02-21T06:17:27.809Z,84.00
2018-02-21T06:18:27.902Z,100.00
2018-02-21T06:19:27.859Z,116.00
2018-02-21T06:20:27.883Z,132.00
2018-02-21T06:21:27.906Z,148.00
2018-02-21T06:22:27.930Z,168.00
2018-02-21T06:23:27.955Z,184.00
2018-02-21T06:24:27.980Z,204.00
2018-02-21T06:25:28.004Z,216.00
2018-02-21T06:26:28.028Z,224.00
2018-02-21T06:27:28.053Z,232.00
2018-02-21T06:28:28.075Z,240.00
2018-02-21T06:29:28.099Z,252.00
2018-02-21T06:30:28.124Z,268.00
2018-02-21T06:31:28.148Z,284.00
2018-02-21T06:32:28.173Z,304.00
2018-02-21T06:33:28.196Z,312.00
2018-02-21T06:34:28.222Z,324.00
2018-02-21T06:35:28.243Z,328.00
2018-02-21T06:36:28.269Z,360.00
2018-02-21T06:37:28.291Z,388.00
2018-02-21T06:38:28.327Z,400.00
2018-02-21T06:39:28.340Z,412.00
2018-02-21T06:40:28.364Z,420.00
2018-02-21T06:41:28.388Z,436.00
2018-02-21T06:42:28.414Z,460.00
2018-02-21T06:43:28.436Z,500.00
2018-02-21T06:44:28.461Z,532.00
2018-02-21T06:45:28.484Z,544.00
2018-02-21T06:46:28.514Z,588.00
2018-02-21T06:47:28.533Z,624.00
2018-02-21T06:48:28.565Z,644.00
2018-02-21T06:49:28.581Z,692.00
2018-02-21T06:50:28.605Z,760.00
2018-02-21T06:51:28.629Z,816.00
2018-02-21T06:52:28.655Z,860.00
2018-02-21T06:53:28.677Z,948.00
2018-02-21T06:54:28.703Z,980.00
2018-02-21T06:55:28.726Z,1016.00
2018-02-21T06:56:28.750Z,1080.00
2018-02-21T06:57:28.776Z,1160.00
2018-02-21T06:58:28.801Z,1196.00
2018-02-21T06:59:28.823Z,1292.00
2018-02-21T07:00:28.848Z,1412.00
2018-02-21T07:01:28.873Z,1476.00
2018-02-21T07:02:28.896Z,1460.00
2018-02-21T07:03:28.926Z,1448.00
2018-02-21T07:04:28.946Z,1508.00
2018-02-21T07:05:28.969Z,1580.00
2018-02-21T07:06:28.994Z,1600.00
2018-02-21T07:07:29.018Z,1688.00
2018-02-21T07:08:29.043Z,1736.00
2018-02-21T07:09:29.067Z,1644.00
2018-02-21T07:10:29.092Z,1600.00
2018-02-21T07:11:29.124Z,1600.00
2018-02-21T07:12:29.141Z,1592.00
2018-02-21T07:13:29.166Z,1604.00
2018-02-21T07:14:29.190Z,1688.00
2018-02-21T07:15:29.408Z,1696.00
2018-02-21T07:16:29.240Z,1816.00
2018-02-21T07:17:29.263Z,1824.00
2018-02-21T07:18:29.288Z,1876.00
2018-02-21T07:19:29.313Z,1856.00
2018-02-21T07:20:29.339Z,1756.00
2018-02-21T07:21:29.363Z,1716.00
2018-02-21T07:22:29.388Z,1736.00
2018-02-21T07:23:29.412Z,1724.00
2018-02-21T07:24:29.439Z,1832.00
2018-02-21T07:25:29.461Z,1888.00
2018-02-21T07:26:29.486Z,1912.00
2018-02-21T07:27:29.512Z,2008.00
2018-02-21T07:28:29.537Z,2224.00
2018-02-21T07:29:29.561Z,2304.00
2018-02-21T07:30:29.585Z,2424.00
2018-02-21T07:31:29.615Z,2700.00
2018-02-21T07:32:29.639Z,2584.00
2018-02-21T07:33:29.662Z,2392.00
2018-02-21T07:34:29.688Z,2300.00
2018-02-21T07:35:29.710Z,2452.00
2018-02-21T07:36:29.735Z,2728.00
2018-02-21T07:37:29.761Z,2720.00
2018-02-21T07:38:29.783Z,2788.00
2018-02-21T07:39:29.809Z,2968.00
2018-02-21T07:40:29.834Z,3100.00
2018-02-21T07:41:29.858Z,3052.00
2018-02-21T07:42:29.883Z,3256.00
2018-02-21T07:43:29.908Z,3248.00
2018-02-21T07:44:29.938Z,3308.00
2018-02-21T07:45:29.958Z,3244.00
2018-02-21T07:46:29.984Z,3280.00
2018-02-21T07:47:30.009Z,3216.00
2018-02-21T07:48:30.034Z,3056.00
2018-02-21T07:49:30.058Z,3256.00
2018-02-21T07:50:30.084Z,3528.00
2018-02-21T07:51:30.109Z,3676.00
2018-02-21T07:52:30.134Z,3472.00
2018-02-21T07:53:30.158Z,3432.00
2018-02-21T07:54:30.184Z,3688.00
2018-02-21T07:55:30.210Z,3872.00
2018-02-21T07:56:30.235Z,4024.00
2018-02-21T07:57:30.260Z,3980.00
2018-02-21T07:58:30.285Z,4044.00
2018-02-21T07:59:30.311Z,4112.00
2018-02-21T08:00:30.336Z,4200.00
2018-02-21T08:01:30.361Z,4412.00
2018-02-21T08:02:30.392Z,4808.00
2018-02-21T08:03:30.413Z,4680.00
2018-02-21T08:04:30.439Z,4576.00
2018-02-21T08:05:30.463Z,4692.00
2018-02-21T08:06:30.524Z,4876.00
2018-02-21T08:07:30.515Z,4740.00
2018-02-21T08:08:30.541Z,4736.00
2018-02-21T08:09:30.565Z,5008.00
2018-02-21T08:10:30.591Z,5420.00
2018-02-21T08:11:30.617Z,5572.00
2018-02-21T08:12:30.643Z,5204.00
2018-02-21T08:13:30.668Z,4972.00
2018-02-21T08:14:30.694Z,4992.00
2018-02-21T08:15:30.721Z,5440.00
2018-02-21T08:16:30.751Z,5480.00
2018-02-21T08:17:30.772Z,5232.00
2018-02-21T08:18:30.798Z,5588.00
2018-02-21T08:19:30.824Z,5444.00
2018-02-21T08:20:30.849Z,6592.00
2018-02-21T08:21:30.874Z,7284.00
2018-02-21T08:22:30.900Z,10996.00
2018-02-21T08:23:30.928Z,9044.00
2018-02-21T08:24:30.954Z,7380.00
2018-02-21T08:25:30.979Z,6612.00
2018-02-21T08:26:31.006Z,6764.00
2018-02-21T08:27:31.036Z,7612.00
2018-02-21T08:28:31.059Z,7380.00
2018-02-21T08:29:31.085Z,7212.00
2018-02-21T08:30:31.109Z,8000.00
2018-02-21T08:31:31.138Z,14848.00
2018-02-21T08:32:31.164Z,7440.00
2018-02-21T08:33:31.190Z,18560.00
2018-02-21T08:34:31.217Z,10836.00
2018-02-21T08:35:31.249Z,9524.00
2018-02-21T08:36:31.270Z,8232.00
2018-02-21T08:37:31.300Z,7468.00
2018-02-21T08:38:31.323Z,11612.00
2018-02-21T08:39:31.352Z,7608.00
2018-02-21T08:40:31.378Z,11912.00
2018-02-21T08:41:31.404Z,9388.00
2018-02-21T08:42:31.431Z,8488.00
2018-02-21T08:43:31.458Z,7756.00
2018-02-21T08:44:31.485Z,7872.00
2018-02-21T08:45:31.513Z,12444.00
2018-02-21T08:46:31.541Z,17536.00
2018-02-21T08:47:31.568Z,14688.00
2018-02-21T08:48:31.594Z,11176.00
2018-02-21T08:49:31.621Z,11468.00
2018-02-21T08:50:31.653Z,12152.00
2018-02-21T08:51:31.676Z,12748.00
2018-02-21T08:52:31.705Z,11224.00
2018-02-21T08:53:31.732Z,15168.00
2018-02-21T08:54:31.759Z,9340.00
2018-02-21T08:55:31.791Z,8284.00
2018-02-21T08:56:31.816Z,7780.00
2018-02-21T08:57:31.842Z,7552.00
2018-02-21T08:58:31.871Z,7760.00
2018-02-21T08:59:31.898Z,8304.00
2018-02-21T09:00:31.926Z,7324.00
2018-02-21T09:01:31.953Z,6860.00
2018-02-21T09:02:31.980Z,6772.00
2018-02-21T09:03:32.007Z,6216.00
2018-02-21T09:04:32.034Z,6296.00
2018-02-21T09:05:32.062Z,6820.00
2018-02-21T09:06:32.144Z,6760.00
2018-02-21T09:07:32.118Z,7108.00
2018-02-21T09:08:32.144Z,8168.00
2018-02-21T09:09:32.172Z,8428.00
2018-02-21T09:10:32.198Z,8624.00
2018-02-21T09:11:32.227Z,8332.00
2018-02-21T09:12:32.253Z,7700.00
2018-02-21T09:13:32.281Z,7268.00
2018-02-21T09:14:32.307Z,7360.00
2018-02-21T09:15:32.335Z,7256.00
2018-02-21T09:16:32.403Z,7512.00
2018-02-21T09:17:32.388Z,7820.00
2018-02-21T09:18:32.415Z,8220.00
2018-02-21T09:19:32.441Z,9316.00
2018-02-21T09:20:32.470Z,8324.00
2018-02-21T09:21:32.500Z,8384.00
2018-02-21T09:22:32.522Z,8744.00
2018-02-21T09:23:32.550Z,8796.00
2018-02-21T09:24:32.580Z,8204.00
2018-02-21T09:25:32.603Z,7892.00
2018-02-21T09:26:32.630Z,7868.00
2018-02-21T09:27:32.659Z,8252.00
2018-02-21T09:28:32.686Z,10180.00
2018-02-21T09:29:32.710Z,12080.00
2018-02-21T09:30:32.736Z,13372.00
2018-02-21T09:31:32.764Z,12756.00
2018-02-21T09:32:32.790Z,11844.00
2018-02-21T09:33:32.818Z,12492.00
2018-02-21T09:34:32.846Z,13608.00
2018-02-21T09:35:32.873Z,23456.00
2018-02-21T09:36:32.899Z,24064.00
2018-02-21T09:37:32.926Z,11884.00
2018-02-21T09:38:32.953Z,11240.00
2018-02-21T09:39:32.980Z,11120.00
2018-02-21T09:40:33.009Z,10552.00
2018-02-21T09:41:33.036Z,8776.00
2018-02-21T09:42:33.064Z,8680.00
2018-02-21T09:43:33.091Z,8996.00
2018-02-21T09:44:33.118Z,8592.00
2018-02-21T09:45:33.146Z,8384.00
2018-02-21T09:46:33.174Z,7976.00
2018-02-21T09:47:33.201Z,8344.00
2018-02-21T09:48:33.229Z,9304.00
2018-02-21T09:49:33.256Z,13672.00
2018-02-21T09:50:33.283Z,11060.00
2018-02-21T09:51:33.310Z,12888.00
2018-02-21T09:52:33.338Z,12072.00
2018-02-21T09:53:33.366Z,11028.00
2018-02-21T09:54:33.419Z,10152.00
2018-02-21T09:55:33.420Z,10376.00
2018-02-21T09:56:33.448Z,10416.00
2018-02-21T09:57:33.475Z,11632.00
2018-02-21T09:58:33.503Z,19168.00
2018-02-21T09:59:33.531Z,13408.00
2018-02-21T10:00:33.560Z,12424.00
2018-02-21T10:01:33.585Z,12116.00
2018-02-21T10:02:33.613Z,11536.00
2018-02-21T10:03:33.642Z,14348.00
2018-02-21T10:04:33.671Z,12392.00
2018-02-21T10:05:33.696Z,12724.00
2018-02-21T10:06:33.723Z,12652.00
2018-02-21T10:07:33.752Z,13248.00
2018-02-21T10:08:33.781Z,12532.00
2018-02-21T10:09:33.807Z,11724.00
2018-02-21T10:10:33.834Z,11004.00
2018-02-21T10:11:33.863Z,10292.00
2018-02-21T10:12:33.894Z,10024.00
2018-02-21T10:13:33.919Z,10352.00
2018-02-21T10:14:33.947Z,9912.00
2018-02-21T10:15:33.975Z,10248.00
2018-02-21T10:16:34.006Z,10344.00
2018-02-21T10:17:34.031Z,8772.00
2018-02-21T10:18:34.059Z,8192.00
2018-02-21T10:19:34.087Z,8960.00
2018-02-21T10:20:34.115Z,9096.00
2018-02-21T10:21:34.141Z,8784.00
2018-02-21T10:22:34.170Z,8704.00
2018-02-21T10:23:34.197Z,9384.00
2018-02-21T10:24:34.230Z,11364.00
2018-02-21T10:25:34.253Z,11932.00
2018-02-21T10:26:34.280Z,11024.00
2018-02-21T10:27:34.308Z,11796.00
2018-02-21T10:28:34.335Z,12892.00
2018-02-21T10:29:34.363Z,14404.00
2018-02-21T10:30:34.390Z,12944.00
2018-02-21T10:31:34.418Z,14484.00
2018-02-21T10:32:34.455Z,16992.00
2018-02-21T10:33:34.472Z,17856.00
2018-02-21T10:34:34.500Z,13780.00
2018-02-21T10:35:34.528Z,13052.00
2018-02-21T10:36:34.557Z,12036.00
2018-02-21T10:37:34.584Z,11296.00
2018-02-21T10:38:34.621Z,11496.00
2018-02-21T10:39:34.640Z,11224.00
2018-02-21T10:40:34.669Z,11616.00
2018-02-21T10:41:34.695Z,12660.00
2018-02-21T10:42:34.724Z,12380.00
2018-02-21T10:43:34.751Z,12120.00
2018-02-21T10:44:34.780Z,12524.00
2018-02-21T10:45:34.808Z,13576.00
2018-02-21T10:46:34.836Z,14036.00
2018-02-21T10:47:34.864Z,14188.00
2018-02-21T10:48:34.893Z,14624.00
2018-02-21T10:49:34.919Z,15380.00
2018-02-21T10:50:34.948Z,17472.00
2018-02-21T10:51:34.976Z,20064.00
2018-02-21T10:52:35.003Z,21216.00
2018-02-21T10:53:35.031Z,22112.00
2018-02-21T10:54:35.059Z,26912.00
2018-02-21T10:55:35.087Z,23520.00
2018-02-21T10:56:35.116Z,22080.00
2018-02-21T10:57:35.144Z,43424.00
2018-02-21T10:58:35.174Z,27552.00
2018-02-21T10:59:35.237Z,18176.00
2018-02-21T11:00:35.233Z,17664.00
2018-02-21T11:01:35.260Z,20992.00
2018-02-21T11:02:35.289Z,28128.00
2018-02-21T11:03:35.319Z,64512.00
2018-02-21T11:04:35.352Z,24736.00
2018-02-21T11:05:35.377Z,23040.00
2018-02-21T11:06:35.409Z,18016.00
2018-02-21T11:07:35.438Z,24192.00
2018-02-21T11:08:35.469Z,21152.00
2018-02-21T11:09:35.497Z,17760.00
2018-02-21T11:10:35.528Z,16800.00
2018-02-21T11:11:35.560Z,18016.00
2018-02-21T11:12:35.589Z,18880.00
2018-02-21T11:13:35.618Z,22720.00
2018-02-21T11:14:35.649Z,27744.00
2018-02-21T11:15:35.680Z,26368.00
2018-02-21T11:16:35.710Z,22528.00
2018-02-21T11:17:35.740Z,22336.00
2018-02-21T11:18:35.769Z,26720.00
2018-02-21T11:19:35.802Z,52096.00
2018-02-21T11:20:35.831Z,26272.00
2018-02-21T11:21:35.859Z,18784.00
2018-02-21T11:22:35.893Z,18912.00
2018-02-21T11:23:35.957Z,28480.00
2018-02-21T11:24:35.951Z,16256.00
2018-02-21T11:25:35.981Z,19136.00
2018-02-21T11:26:36.069Z,22272.00
2018-02-21T11:27:36.043Z,21760.00
2018-02-21T11:28:36.074Z,25632.00
2018-02-21T11:29:36.108Z,32416.00
2018-02-21T11:30:36.134Z,38592.00
2018-02-21T11:31:36.166Z,42208.00
2018-02-21T11:32:36.196Z,25216.00
2018-02-21T11:33:36.225Z,26272.00
2018-02-21T11:34:36.256Z,22784.00
2018-02-21T11:35:36.287Z,22368.00
2018-02-21T11:36:36.317Z,22016.00
2018-02-21T11:37:36.348Z,36192.00
2018-02-21T11:38:36.380Z,21888.00
2018-02-21T11:39:36.409Z,20256.00
2018-02-21T11:40:36.441Z,22112.00
2018-02-21T11:41:36.472Z,21216.00
2018-02-21T11:42:36.505Z,19072.00
2018-02-21T11:43:36.533Z,16072.00
2018-02-21T11:44:36.565Z,14328.00
2018-02-21T11:45:36.594Z,14776.00
2018-02-21T11:46:36.627Z,15092.00
2018-02-21T11:47:36.655Z,16200.00
2018-02-21T11:48:36.687Z,17792.00
2018-02-21T11:49:36.716Z,18880.00
2018-02-21T11:50:36.749Z,19648.00
2018-02-21T11:51:36.777Z,20480.00
2018-02-21T11:52:36.808Z,20128.00
2018-02-21T11:53:36.837Z,23520.00
2018-02-21T11:54:36.868Z,69632.00
2018-02-21T11:55:36.899Z,65280.00
2018-02-21T11:56:36.930Z,81248.00
2018-02-21T11:57:36.959Z,71520.00
2018-02-21T11:58:36.990Z,18464.00
2018-02-21T11:59:37.022Z,19136.00
2018-02-21T12:00:37.055Z,52480.00
2018-02-21T12:01:37.086Z,19264.00
2018-02-21T12:02:37.119Z,19008.00
2018-02-21T12:03:37.151Z,17504.00
2018-02-21T12:04:37.182Z,25216.00
2018-02-21T12:05:37.214Z,23488.00
2018-02-21T12:06:37.245Z,52992.00
2018-02-21T12:07:37.279Z,75904.00
2018-02-21T12:08:37.311Z,23040.00
2018-02-21T12:09:37.341Z,20384.00
2018-02-21T12:10:37.376Z,23104.00
2018-02-21T12:11:37.408Z,33344.00
2018-02-21T12:12:37.440Z,81216.00
2018-02-21T12:13:37.474Z,79264.00
2018-02-21T12:14:37.506Z,79872.00
2018-02-21T12:15:37.540Z,81024.00
2018-02-21T12:16:37.575Z,79520.00
2018-02-21T12:17:37.607Z,83648.00
2018-02-21T12:18:37.645Z,85504.00
2018-02-21T12:19:37.681Z,80896.00
2018-02-21T12:20:37.718Z,60768.00
2018-02-21T12:21:37.776Z,82656.00
2018-02-21T12:22:37.792Z,77376.00
2018-02-21T12:23:37.830Z,80320.00
2018-02-21T12:24:37.870Z,85216.00
2018-02-21T12:25:37.908Z,80000.00
2018-02-21T12:26:37.947Z,69120.00
2018-02-21T12:27:37.987Z,75072.00
2018-02-21T12:28:38.028Z,79808.00
2018-02-21T12:29:38.068Z,61664.00
2018-02-21T12:30:38.108Z,79680.00
2018-02-21T12:31:38.151Z,50016.00
2018-02-21T12:32:38.191Z,43904.00
2018-02-21T12:33:38.231Z,79456.00
2018-02-21T12:34:38.271Z,74432.00
2018-02-21T12:35:38.313Z,79648.00